Terminal Aerodrome Forecast
Issued by NWS

Current Version | Previous Version | Text Only | Print | Product List | Glossary On
Versions: 1 2 3 4 5 6 7 8 9 10 11 12 13 14 15 16 17 18 19
000
FTUS44 KSJT 051124
TAFSOA
TAF
KSOA 051124Z 0512/0612 17009KT P6SM SCT020
      TEMPO 0512/0515 BKN020
     FM051700 16010KT P6SM SCT070
     FM060200 16006KT P6SM SKC=

USA.gov is the U.S. government's official web portal to all federal, state and local government web resources and services.